sensor_id;sensor_type;location;lat;lon;timestamp;pressure;altitude;pressure_sealevel;temperature;humidity
13800;BME280;6971;50.028;9.258;2022-10-22T00:02:57;99052.78;;;11.71;100.00
13800;BME280;6971;50.028;9.258;2022-10-22T00:07:57;99066.00;;;11.71;100.00
13800;BME280;6971;50.028;9.258;2022-10-22T00:12:58;99068.09;;;11.66;100.00
13800;BME280;6971;50.028;9.258;2022-10-22T00:17:59;99062.53;;;11.70;100.00
13800;BME280;6971;50.028;9.258;2022-10-22T00:23:00;99048.19;;;11.74;100.00
13800;BME280;6971;50.028;9.258;2022-10-22T00:28:01;99035.34;;;11.83;100.00
13800;BME280;6971;50.028;9.258;2022-10-22T00:33:03;99018.44;;;11.85;100.00
13800;BME280;6971;50.028;9.258;2022-10-22T00:38:03;99022.22;;;11.81;100.00
13800;BME280;6971;50.028;9.258;2022-10-22T00:43:04;99022.25;;;11.94;100.00
13800;BME280;6971;50.028;9.258;2022-10-22T00:48:11;99025.75;;;11.95;100.00
13800;BME280;6971;50.028;9.258;2022-10-22T00:53:15;99021.44;;;11.94;100.00
13800;BME280;6971;50.028;9.258;2022-10-22T00:58:17;99029.88;;;11.99;100.00
13800;BME280;6971;50.028;9.258;2022-10-22T01:03:20;99038.81;;;12.11;100.00
13800;BME280;6971;50.028;9.258;2022-10-22T01:08:27;99058.69;;;12.17;100.00
13800;BME280;6971;50.028;9.258;2022-10-22T01:13:45;99041.84;;;12.45;100.00
13800;BME280;6971;50.028;9.258;2022-10-22T01:19:00;99039.38;;;12.55;100.00
13800;BME280;6971;50.028;9.258;2022-10-22T01:29:29;99027.88;;;12.56;100.00
13800;BME280;6971;50.028;9.258;2022-10-22T01:34:33;99035.06;;;12.54;100.00
13800;BME280;6971;50.028;9.258;2022-10-22T01:39:38;99032.31;;;12.43;100.00
13800;BME280;6971;50.028;9.258;2022-10-22T01:44:39;99035.50;;;12.48;100.00
13800;BME280;6971;50.028;9.258;2022-10-22T01:50:08;99026.16;;;12.55;100.00
13800;BME280;6971;50.028;9.258;2022-10-22T01:55:18;99026.81;;;12.46;100.00
13800;BME280;6971;50.028;9.258;2022-10-22T02:00:23;99041.72;;;12.47;100.00
13800;BME280;6971;50.028;9.258;2022-10-22T02:05:30;99049.34;;;12.38;100.00
13800;BME280;6971;50.028;9.258;2022-10-22T02:10:32;99037.81;;;12.39;100.00
13800;BME280;6971;50.028;9.258;2022-10-22T02:15:37;99051.22;;;12.36;100.00
13800;BME280;6971;50.028;9.258;2022-10-22T02:20:40;99058.19;;;12.37;100.00
13800;BME280;6971;50.028;9.258;2022-10-22T02:25:47;99052.81;;;12.39;100.00
13800;BME280;6971;50.028;9.258;2022-10-22T02:30:58;99061.16;;;12.46;100.00
13800;BME280;6971;50.028;9.258;2022-10-22T02:36:01;99062.22;;;12.43;100.00
13800;BME280;6971;50.028;9.258;2022-10-22T02:41:02;99055.00;;;12.32;100.00
13800;BME280;6971;50.028;9.258;2022-10-22T02:46:03;99066.97;;;12.38;100.00
13800;BME280;6971;50.028;9.258;2022-10-22T02:51:04;99067.59;;;12.42;100.00
13800;BME280;6971;50.028;9.258;2022-10-22T02:56:05;99070.34;;;12.40;100.00
13800;BME280;6971;50.028;9.258;2022-10-22T03:01:05;99076.16;;;12.32;100.00
13800;BME280;6971;50.028;9.258;2022-10-22T03:06:06;99074.88;;;12.25;100.00
13800;BME280;6971;50.028;9.258;2022-10-22T03:11:07;99073.94;;;12.39;100.00
13800;BME280;6971;50.028;9.258;2022-10-22T03:16:08;99084.06;;;12.32;100.00
13800;BME280;6971;50.028;9.258;2022-10-22T03:21:23;99099.13;;;12.45;100.00
13800;BME280;6971;50.028;9.258;2022-10-22T03:26:25;99100.88;;;12.31;100.00
13800;BME280;6971;50.028;9.258;2022-10-22T03:31:26;99118.75;;;12.27;100.00
13800;BME280;6971;50.028;9.258;2022-10-22T03:36:26;99118.22;;;12.35;100.00
13800;BME280;6971;50.028;9.258;2022-10-22T03:41:27;99122.56;;;12.36;100.00
13800;BME280;6971;50.028;9.258;2022-10-22T03:46:28;99126.78;;;12.26;100.00
13800;BME280;6971;50.028;9.258;2022-10-22T03:51:29;99133.94;;;12.24;100.00
13800;BME280;6971;50.028;9.258;2022-10-22T03:56:30;99121.72;;;12.36;100.00
13800;BME280;6971;50.028;9.258;2022-10-22T04:01:31;99125.63;;;12.30;100.00
13800;BME280;6971;50.028;9.258;2022-10-22T04:06:32;99128.16;;;12.32;100.00
13800;BME280;6971;50.028;9.258;2022-10-22T04:11:34;99127.13;;;12.34;100.00
13800;BME280;6971;50.028;9.258;2022-10-22T04:16:38;99130.19;;;12.41;100.00
13800;BME280;6971;50.028;9.258;2022-10-22T04:21:39;99136.53;;;12.38;100.00
13800;BME280;6971;50.028;9.258;2022-10-22T04:26:40;99144.47;;;12.38;100.00
13800;BME280;6971;50.028;9.258;2022-10-22T04:31:42;99157.25;;;12.45;100.00
13800;BME280;6971;50.028;9.258;2022-10-22T04:36:43;99169.63;;;12.44;100.00
13800;BME280;6971;50.028;9.258;2022-10-22T04:41:43;99161.25;;;12.37;100.00
13800;BME280;6971;50.028;9.258;2022-10-22T04:46:48;99164.94;;;12.35;100.00
13800;BME280;6971;50.028;9.258;2022-10-22T04:51:49;99163.69;;;12.40;100.00
13800;BME280;6971;50.028;9.258;2022-10-22T04:56:49;99166.03;;;12.45;100.00
13800;BME280;6971;50.028;9.258;2022-10-22T05:01:50;99168.88;;;12.42;100.00
13800;BME280;6971;50.028;9.258;2022-10-22T05:06:51;99167.69;;;12.33;100.00
13800;BME280;6971;50.028;9.258;2022-10-22T05:11:52;99176.00;;;12.27;100.00
13800;BME280;6971;50.028;9.258;2022-10-22T05:16:53;99181.47;;;12.38;100.00
13800;BME280;6971;50.028;9.258;2022-10-22T05:21:56;99187.88;;;12.34;100.00
13800;BME280;6971;50.028;9.258;2022-10-22T05:26:58;99186.22;;;12.46;100.00
13800;BME280;6971;50.028;9.258;2022-10-22T05:31:59;99184.81;;;12.27;100.00
13800;BME280;6971;50.028;9.258;2022-10-22T05:37:00;99188.63;;;12.36;100.00
13800;BME280;6971;50.028;9.258;2022-10-22T05:42:02;99190.19;;;12.26;100.00
13800;BME280;6971;50.028;9.258;2022-10-22T05:47:03;99200.50;;;12.16;100.00
13800;BME280;6971;50.028;9.258;2022-10-22T05:52:04;99206.53;;;12.18;100.00
13800;BME280;6971;50.028;9.258;2022-10-22T05:57:05;99217.84;;;12.20;100.00
13800;BME280;6971;50.028;9.258;2022-10-22T06:02:08;99233.41;;;12.25;100.00
13800;BME280;6971;50.028;9.258;2022-10-22T06:07:12;99220.03;;;12.13;100.00
13800;BME280;6971;50.028;9.258;2022-10-22T06:12:15;99231.13;;;12.19;100.00
13800;BME280;6971;50.028;9.258;2022-10-22T06:17:15;99242.47;;;12.21;100.00
13800;BME280;6971;50.028;9.258;2022-10-22T06:22:16;99245.75;;;12.24;100.00
13800;BME280;6971;50.028;9.258;2022-10-22T06:27:17;99261.53;;;12.26;100.00
13800;BME280;6971;50.028;9.258;2022-10-22T06:32:18;99272.81;;;12.28;100.00
13800;BME280;6971;50.028;9.258;2022-10-22T06:37:19;99283.03;;;12.34;100.00
13800;BME280;6971;50.028;9.258;2022-10-22T06:42:20;99288.31;;;12.34;100.00
13800;BME280;6971;50.028;9.258;2022-10-22T06:47:21;99297.16;;;12.33;100.00
13800;BME280;6971;50.028;9.258;2022-10-22T06:52:21;99289.22;;;12.48;100.00
13800;BME280;6971;50.028;9.258;2022-10-22T06:57:22;99295.09;;;12.38;100.00
13800;BME280;6971;50.028;9.258;2022-10-22T07:02:23;99297.88;;;12.50;100.00
13800;BME280;6971;50.028;9.258;2022-10-22T07:07:24;99312.31;;;12.59;100.00
13800;BME280;6971;50.028;9.258;2022-10-22T07:12:25;99322.81;;;12.46;100.00
13800;BME280;6971;50.028;9.258;2022-10-22T07:17:26;99331.19;;;12.52;100.00
13800;BME280;6971;50.028;9.258;2022-10-22T07:22:26;99334.09;;;12.62;100.00
13800;BME280;6971;50.028;9.258;2022-10-22T07:27:28;99343.16;;;12.58;100.00
13800;BME280;6971;50.028;9.258;2022-10-22T07:32:29;99363.38;;;12.59;100.00
13800;BME280;6971;50.028;9.258;2022-10-22T07:37:37;99364.50;;;12.70;100.00
13800;BME280;6971;50.028;9.258;2022-10-22T07:42:38;99369.25;;;12.64;100.00
13800;BME280;6971;50.028;9.258;2022-10-22T07:47:38;99378.38;;;12.73;100.00
13800;BME280;6971;50.028;9.258;2022-10-22T07:52:39;99390.00;;;12.71;100.00
13800;BME280;6971;50.028;9.258;2022-10-22T07:57:40;99388.66;;;12.78;100.00
13800;BME280;6971;50.028;9.258;2022-10-22T08:02:41;99400.59;;;12.98;100.00
13800;BME280;6971;50.028;9.258;2022-10-22T08:07:42;99390.13;;;12.97;100.00
13800;BME280;6971;50.028;9.258;2022-10-22T08:12:43;99393.00;;;13.06;100.00
13800;BME280;6971;50.028;9.258;2022-10-22T08:17:44;99410.06;;;13.15;100.00
13800;BME280;6971;50.028;9.258;2022-10-22T08:22:45;99412.53;;;13.18;100.00
13800;BME280;6971;50.028;9.258;2022-10-22T08:27:50;99407.44;;;13.15;100.00
13800;BME280;6971;50.028;9.258;2022-10-22T08:32:51;99409.19;;;13.29;100.00
13800;BME280;6971;50.028;9.258;2022-10-22T08:37:52;99415.72;;;13.24;100.00
13800;BME280;6971;50.028;9.258;2022-10-22T08:43:12;99412.88;;;13.27;100.00
13800;BME280;6971;50.028;9.258;2022-10-22T08:48:53;99416.00;;;14.13;100.00
13800;BME280;6971;50.028;9.258;2022-10-22T08:54:18;99422.03;;;15.29;100.00
13800;BME280;6971;50.028;9.258;2022-10-22T08:59:26;99431.69;;;16.02;100.00
13800;BME280;6971;50.028;9.258;2022-10-22T09:04:37;99441.63;;;16.34;100.00
13800;BME280;6971;50.028;9.258;2022-10-22T09:09:44;99443.47;;;16.56;100.00
13800;BME280;6971;50.028;9.258;2022-10-22T09:14:49;99445.28;;;16.33;100.00
13800;BME280;6971;50.028;9.258;2022-10-22T09:25:22;99448.00;;;17.23;89.79
13800;BME280;6971;50.028;9.258;2022-10-22T09:30:29;99457.00;;;17.43;92.41
13800;BME280;6971;50.028;9.258;2022-10-22T09:35:33;99457.56;;;18.01;85.58
13800;BME280;6971;50.028;9.258;2022-10-22T09:40:52;99471.50;;;18.26;82.92
13800;BME280;6971;50.028;9.258;2022-10-22T09:45:59;99469.78;;;17.82;91.67
13800;BME280;6971;50.028;9.258;2022-10-22T09:51:13;99476.38;;;18.42;83.71
13800;BME280;6971;50.028;9.258;2022-10-22T10:01:26;99477.63;;;18.17;83.71
13800;BME280;6971;50.028;9.258;2022-10-22T10:06:30;99482.50;;;17.13;86.84
13800;BME280;6971;50.028;9.258;2022-10-22T10:11:39;99480.50;;;18.25;90.22
13800;BME280;6971;50.028;9.258;2022-10-22T10:27:14;99488.06;;;17.21;90.20
13800;BME280;6971;50.028;9.258;2022-10-22T10:43:14;99501.06;;;18.65;76.26
13800;BME280;6971;50.028;9.258;2022-10-22T10:59:13;99466.91;;;18.59;81.16
13800;BME280;6971;50.028;9.258;2022-10-22T11:15:38;99472.84;;;19.14;70.36
13800;BME280;6971;50.028;9.258;2022-10-22T11:20:48;99471.91;;;19.35;70.37
13800;BME280;6971;50.028;9.258;2022-10-22T11:25:50;99461.22;;;19.64;69.72
13800;BME280;6971;50.028;9.258;2022-10-22T11:30:57;99457.84;;;20.02;67.57
13800;BME280;6971;50.028;9.258;2022-10-22T11:36:04;99460.81;;;19.59;71.36
13800;BME280;6971;50.028;9.258;2022-10-22T11:41:11;99460.91;;;19.08;73.19
13800;BME280;6971;50.028;9.258;2022-10-22T11:51:37;99459.47;;;19.04;72.49
13800;BME280;6971;50.028;9.258;2022-10-22T11:56:38;99455.03;;;19.24;70.00
13800;BME280;6971;50.028;9.258;2022-10-22T12:01:41;99449.72;;;19.64;69.68
13800;BME280;6971;50.028;9.258;2022-10-22T12:06:57;99453.06;;;19.56;69.00
13800;BME280;6971;50.028;9.258;2022-10-22T12:12:04;99441.53;;;19.26;70.89
13800;BME280;6971;50.028;9.258;2022-10-22T12:17:14;99449.13;;;19.80;70.80
13800;BME280;6971;50.028;9.258;2022-10-22T12:22:25;99448.00;;;19.33;70.40
13800;BME280;6971;50.028;9.258;2022-10-22T12:27:33;99446.19;;;19.43;70.00
13800;BME280;6971;50.028;9.258;2022-10-22T12:32:36;99445.09;;;18.54;70.61
13800;BME280;6971;50.028;9.258;2022-10-22T12:37:37;99445.88;;;18.13;74.37
13800;BME280;6971;50.028;9.258;2022-10-22T12:42:54;99447.97;;;17.88;76.07
13800;BME280;6971;50.028;9.258;2022-10-22T12:47:57;99440.31;;;18.17;74.54
13800;BME280;6971;50.028;9.258;2022-10-22T12:52:58;99440.34;;;17.84;77.19
13800;BME280;6971;50.028;9.258;2022-10-22T12:57:58;99454.09;;;18.22;77.95
13800;BME280;6971;50.028;9.258;2022-10-22T13:03:04;99445.09;;;18.23;72.24
13800;BME280;6971;50.028;9.258;2022-10-22T13:08:10;99446.44;;;17.96;74.00
13800;BME280;6971;50.028;9.258;2022-10-22T13:18:38;99446.00;;;17.91;75.44
13800;BME280;6971;50.028;9.258;2022-10-22T13:23:38;99443.50;;;17.56;77.84
13800;BME280;6971;50.028;9.258;2022-10-22T13:28:40;99447.22;;;17.86;75.50
13800;BME280;6971;50.028;9.258;2022-10-22T13:33:42;99443.06;;;18.77;71.54
13800;BME280;6971;50.028;9.258;2022-10-22T13:38:44;99461.97;;;18.55;70.09
13800;BME280;6971;50.028;9.258;2022-10-22T13:43:45;99458.19;;;18.57;70.27
13800;BME280;6971;50.028;9.258;2022-10-22T13:48:54;99460.22;;;18.44;71.41
13800;BME280;6971;50.028;9.258;2022-10-22T13:53:56;99460.31;;;18.32;72.49
13800;BME280;6971;50.028;9.258;2022-10-22T13:58:57;99454.97;;;18.32;74.12
13800;BME280;6971;50.028;9.258;2022-10-22T14:03:58;99457.44;;;17.81;76.23
13800;BME280;6971;50.028;9.258;2022-10-22T14:09:04;99458.09;;;17.95;75.49
13800;BME280;6971;50.028;9.258;2022-10-22T14:14:05;99444.66;;;17.96;73.67
13800;BME280;6971;50.028;9.258;2022-10-22T14:19:13;99457.91;;;17.86;73.50
13800;BME280;6971;50.028;9.258;2022-10-22T14:24:15;99455.00;;;17.57;77.28
13800;BME280;6971;50.028;9.258;2022-10-22T14:29:15;99448.53;;;17.71;74.41
13800;BME280;6971;50.028;9.258;2022-10-22T14:34:16;99446.19;;;17.99;73.82
13800;BME280;6971;50.028;9.258;2022-10-22T14:39:17;99450.88;;;18.07;73.56
13800;BME280;6971;50.028;9.258;2022-10-22T14:44:18;99462.84;;;17.91;71.99
13800;BME280;6971;50.028;9.258;2022-10-22T14:49:18;99463.78;;;17.69;74.18
13800;BME280;6971;50.028;9.258;2022-10-22T14:54:19;99469.59;;;17.74;76.37
13800;BME280;6971;50.028;9.258;2022-10-22T14:59:19;99466.66;;;17.77;75.93
13800;BME280;6971;50.028;9.258;2022-10-22T15:04:21;99469.34;;;17.77;75.62
13800;BME280;6971;50.028;9.258;2022-10-22T15:09:22;99467.69;;;17.65;76.70
13800;BME280;6971;50.028;9.258;2022-10-22T15:14:23;99478.94;;;17.35;77.57
13800;BME280;6971;50.028;9.258;2022-10-22T15:19:24;99472.88;;;17.45;80.85
13800;BME280;6971;50.028;9.258;2022-10-22T15:24:25;99476.88;;;17.28;78.95
13800;BME280;6971;50.028;9.258;2022-10-22T15:29:26;99471.97;;;17.23;80.27
13800;BME280;6971;50.028;9.258;2022-10-22T15:34:30;99478.13;;;17.23;81.44
13800;BME280;6971;50.028;9.258;2022-10-22T15:39:32;99482.88;;;17.08;82.58
13800;BME280;6971;50.028;9.258;2022-10-22T15:44:33;99486.28;;;16.65;88.26
13800;BME280;6971;50.028;9.258;2022-10-22T15:49:35;99496.28;;;16.38;94.59
13800;BME280;6971;50.028;9.258;2022-10-22T15:54:36;99488.63;;;16.11;100.00
13800;BME280;6971;50.028;9.258;2022-10-22T15:59:37;99488.13;;;16.05;100.00
13800;BME280;6971;50.028;9.258;2022-10-22T16:04:38;99494.53;;;15.78;100.00
13800;BME280;6971;50.028;9.258;2022-10-22T16:09:39;99494.66;;;15.52;100.00
13800;BME280;6971;50.028;9.258;2022-10-22T16:14:40;99495.09;;;15.22;100.00
13800;BME280;6971;50.028;9.258;2022-10-22T16:19:40;99495.94;;;14.85;100.00
13800;BME280;6971;50.028;9.258;2022-10-22T16:24:41;99502.31;;;14.69;100.00
13800;BME280;6971;50.028;9.258;2022-10-22T16:29:42;99501.22;;;14.59;100.00
13800;BME280;6971;50.028;9.258;2022-10-22T16:34:44;99499.97;;;14.52;100.00
13800;BME280;6971;50.028;9.258;2022-10-22T16:39:45;99510.38;;;14.29;100.00
13800;BME280;6971;50.028;9.258;2022-10-22T16:44:45;99508.47;;;14.18;100.00
13800;BME280;6971;50.028;9.258;2022-10-22T16:49:46;99508.84;;;13.99;100.00
13800;BME280;6971;50.028;9.258;2022-10-22T16:54:47;99505.38;;;13.70;100.00
13800;BME280;6971;50.028;9.258;2022-10-22T16:59:47;99501.19;;;13.53;100.00
13800;BME280;6971;50.028;9.258;2022-10-22T17:04:51;99514.22;;;13.42;100.00
13800;BME280;6971;50.028;9.258;2022-10-22T17:09:52;99520.94;;;13.20;100.00
13800;BME280;6971;50.028;9.258;2022-10-22T17:14:53;99519.06;;;13.08;100.00
13800;BME280;6971;50.028;9.258;2022-10-22T17:19:54;99528.03;;;12.90;100.00
13800;BME280;6971;50.028;9.258;2022-10-22T17:25:14;99532.00;;;12.69;100.00
13800;BME280;6971;50.028;9.258;2022-10-22T17:30:21;99538.31;;;12.51;100.00
13800;BME280;6971;50.028;9.258;2022-10-22T17:35:25;99540.25;;;12.33;100.00
13800;BME280;6971;50.028;9.258;2022-10-22T17:40:26;99540.94;;;12.22;100.00
13800;BME280;6971;50.028;9.258;2022-10-22T17:45:26;99548.53;;;12.12;100.00
13800;BME280;6971;50.028;9.258;2022-10-22T17:50:27;99557.88;;;12.02;100.00
13800;BME280;6971;50.028;9.258;2022-10-22T17:55:28;99566.44;;;11.91;100.00
13800;BME280;6971;50.028;9.258;2022-10-22T18:00:30;99556.84;;;11.74;100.00
13800;BME280;6971;50.028;9.258;2022-10-22T18:05:32;99551.16;;;11.66;100.00
13800;BME280;6971;50.028;9.258;2022-10-22T18:10:38;99562.59;;;11.50;100.00
13800;BME280;6971;50.028;9.258;2022-10-22T18:15:38;99569.19;;;11.25;100.00
13800;BME280;6971;50.028;9.258;2022-10-22T18:20:40;99560.44;;;11.25;100.00
13800;BME280;6971;50.028;9.258;2022-10-22T18:25:47;99565.97;;;11.20;100.00
13800;BME280;6971;50.028;9.258;2022-10-22T18:30:51;99571.66;;;11.12;100.00
13800;BME280;6971;50.028;9.258;2022-10-22T18:35:51;99569.69;;;11.00;100.00
13800;BME280;6971;50.028;9.258;2022-10-22T18:40:52;99565.75;;;10.91;100.00
13800;BME280;6971;50.028;9.258;2022-10-22T18:45:53;99570.41;;;10.86;100.00
13800;BME280;6971;50.028;9.258;2022-10-22T18:51:00;99567.19;;;10.80;100.00
13800;BME280;6971;50.028;9.258;2022-10-22T18:56:06;99567.88;;;10.66;100.00
13800;BME280;6971;50.028;9.258;2022-10-22T19:01:09;99562.28;;;10.56;100.00
13800;BME280;6971;50.028;9.258;2022-10-22T19:06:12;99555.28;;;10.55;100.00
13800;BME280;6971;50.028;9.258;2022-10-22T19:11:16;99562.91;;;10.44;100.00
13800;BME280;6971;50.028;9.258;2022-10-22T19:16:19;99558.22;;;10.31;100.00
13800;BME280;6971;50.028;9.258;2022-10-22T19:21:24;99555.13;;;10.23;100.00
13800;BME280;6971;50.028;9.258;2022-10-22T19:26:37;99553.88;;;10.13;100.00
13800;BME280;6971;50.028;9.258;2022-10-22T19:31:38;99559.44;;;10.06;100.00
13800;BME280;6971;50.028;9.258;2022-10-22T19:36:40;99555.72;;;10.11;100.00
13800;BME280;6971;50.028;9.258;2022-10-22T19:41:41;99557.88;;;10.02;100.00
13800;BME280;6971;50.028;9.258;2022-10-22T19:46:45;99553.16;;;9.91;100.00
13800;BME280;6971;50.028;9.258;2022-10-22T19:51:45;99558.34;;;9.93;100.00
13800;BME280;6971;50.028;9.258;2022-10-22T19:56:46;99562.72;;;9.94;100.00
13800;BME280;6971;50.028;9.258;2022-10-22T20:01:47;99556.97;;;9.86;100.00
13800;BME280;6971;50.028;9.258;2022-10-22T20:06:48;99559.53;;;9.87;100.00
13800;BME280;6971;50.028;9.258;2022-10-22T20:11:49;99564.50;;;9.74;100.00
13800;BME280;6971;50.028;9.258;2022-10-22T20:16:50;99563.81;;;9.71;100.00
13800;BME280;6971;50.028;9.258;2022-10-22T20:21:51;99572.09;;;9.63;100.00
13800;BME280;6971;50.028;9.258;2022-10-22T20:26:52;99566.09;;;9.59;100.00
13800;BME280;6971;50.028;9.258;2022-10-22T20:31:53;99568.72;;;9.59;100.00
13800;BME280;6971;50.028;9.258;2022-10-22T20:36:54;99566.41;;;9.53;100.00
13800;BME280;6971;50.028;9.258;2022-10-22T20:41:56;99589.34;;;9.49;100.00
13800;BME280;6971;50.028;9.258;2022-10-22T20:46:57;99595.56;;;9.48;100.00
13800;BME280;6971;50.028;9.258;2022-10-22T20:51:59;99594.47;;;9.52;100.00
13800;BME280;6971;50.028;9.258;2022-10-22T20:57:00;99588.47;;;9.50;100.00
13800;BME280;6971;50.028;9.258;2022-10-22T21:02:03;99587.03;;;9.43;100.00
13800;BME280;6971;50.028;9.258;2022-10-22T21:07:04;99587.16;;;9.40;100.00
13800;BME280;6971;50.028;9.258;2022-10-22T21:12:05;99571.38;;;9.40;100.00
13800;BME280;6971;50.028;9.258;2022-10-22T21:17:11;99574.19;;;9.37;100.00
13800;BME280;6971;50.028;9.258;2022-10-22T21:22:12;99567.69;;;9.44;100.00
13800;BME280;6971;50.028;9.258;2022-10-22T21:27:13;99561.53;;;9.45;100.00
13800;BME280;6971;50.028;9.258;2022-10-22T21:32:14;99556.25;;;9.45;100.00
13800;BME280;6971;50.028;9.258;2022-10-22T21:37:15;99548.94;;;9.33;100.00
13800;BME280;6971;50.028;9.258;2022-10-22T21:42:16;99544.44;;;9.35;100.00
13800;BME280;6971;50.028;9.258;2022-10-22T21:47:17;99540.13;;;9.34;100.00
13800;BME280;6971;50.028;9.258;2022-10-22T21:52:17;99533.72;;;9.39;100.00
13800;BME280;6971;50.028;9.258;2022-10-22T21:57:19;99534.56;;;9.40;100.00
13800;BME280;6971;50.028;9.258;2022-10-22T22:02:19;99543.50;;;9.36;100.00
13800;BME280;6971;50.028;9.258;2022-10-22T22:07:21;99535.84;;;9.31;100.00
13800;BME280;6971;50.028;9.258;2022-10-22T22:12:22;99545.44;;;9.32;100.00
13800;BME280;6971;50.028;9.258;2022-10-22T22:17:23;99547.56;;;9.24;100.00
13800;BME280;6971;50.028;9.258;2022-10-22T22:22:23;99553.34;;;9.13;100.00
13800;BME280;6971;50.028;9.258;2022-10-22T22:27:24;99552.50;;;9.12;100.00
13800;BME280;6971;50.028;9.258;2022-10-22T22:32:25;99562.72;;;9.19;100.00
13800;BME280;6971;50.028;9.258;2022-10-22T22:37:26;99555.19;;;9.11;100.00
13800;BME280;6971;50.028;9.258;2022-10-22T22:42:27;99556.13;;;9.10;100.00
13800;BME280;6971;50.028;9.258;2022-10-22T22:47:28;99552.81;;;9.05;100.00
13800;BME280;6971;50.028;9.258;2022-10-22T22:52:29;99545.81;;;9.05;100.00
13800;BME280;6971;50.028;9.258;2022-10-22T22:57:30;99553.88;;;9.00;100.00
13800;BME280;6971;50.028;9.258;2022-10-22T23:02:31;99546.94;;;8.99;100.00
13800;BME280;6971;50.028;9.258;2022-10-22T23:07:32;99541.16;;;8.91;100.00
13800;BME280;6971;50.028;9.258;2022-10-22T23:12:33;99534.63;;;8.81;100.00
13800;BME280;6971;50.028;9.258;2022-10-22T23:17:33;99518.28;;;8.74;100.00
13800;BME280;6971;50.028;9.258;2022-10-22T23:22:34;99518.28;;;8.74;100.00
13800;BME280;6971;50.028;9.258;2022-10-22T23:27:35;99510.47;;;8.72;100.00
13800;BME280;6971;50.028;9.258;2022-10-22T23:32:38;99517.13;;;8.60;100.00
13800;BME280;6971;50.028;9.258;2022-10-22T23:37:39;99500.72;;;8.55;100.00
13800;BME280;6971;50.028;9.258;2022-10-22T23:42:40;99503.41;;;8.54;100.00
13800;BME280;6971;50.028;9.258;2022-10-22T23:47:44;99498.75;;;8.60;100.00
13800;BME280;6971;50.028;9.258;2022-10-22T23:52:45;99500.81;;;8.52;100.00
13800;BME280;6971;50.028;9.258;2022-10-22T23:57:46;99477.47;;;8.46;100.00
